パラオ の空港の天気 - METARとTAF

パラオ国際空港 ( PTRO / ROR ) - パラオ アイライ州
飛行場実況気象(Metar)
観測時間10/16 16:53 PWT (10/16 07:53 UTC)
風向・風速静穏 0m/s
視程10km以上
天気現象周辺でしゅう雨
全天の8割程度の雲 雲底高度 460m
全天の8割程度の雲 雲底高度 3660m
全天の8割程度の雲 雲底高度 9140m
気温26℃
湿度94%
気圧1008hPa
METARPTRO 160753Z 00000KT 11SM VCSH BKN015CB BKN120 BKN300 26/25 A2978 RMK VCSH S AND NW CB W-N
過去の天気等 Google飛行場航空写真 Wunderground天気予報

過去48時間のMETAR

飛行場予報(TAF)
発表時間: 10/16 14:20 PWT (10/16 05:20 UTC)
予報対象時間: 16日15時 PWT ~ 17日15時 PWT
風向・風速南 4m/s
視程10km以上
天気現象周辺でしゅう雨
全天の4割程度の雲 雲底高度 490m
全天の8割程度の雲 雲底高度 3660m
PTRO 160520Z 1606/1706 18008KT P6SM VCSH SCT016 BKN120